sensor_id;sensor_type;location;lat;lon;timestamp;P1;durP1;ratioP1;P2;durP2;ratioP2
12155;SDS011;6141;49.092;8.516;2024-01-30T00:01:11;8.67;;;7.30;;
12155;SDS011;6141;49.092;8.516;2024-01-30T00:03:39;7.67;;;6.87;;
12155;SDS011;6141;49.092;8.516;2024-01-30T00:06:07;10.43;;;8.10;;
12155;SDS011;6141;49.092;8.516;2024-01-30T00:08:35;10.63;;;6.40;;
12155;SDS011;6141;49.092;8.516;2024-01-30T00:11:04;8.00;;;6.43;;
12155;SDS011;6141;49.092;8.516;2024-01-30T00:13:32;11.67;;;7.47;;
12155;SDS011;6141;49.092;8.516;2024-01-30T00:16:00;7.20;;;6.50;;
12155;SDS011;6141;49.092;8.516;2024-01-30T00:18:30;7.30;;;6.43;;
12155;SDS011;6141;49.092;8.516;2024-01-30T00:20:58;7.60;;;6.40;;
12155;SDS011;6141;49.092;8.516;2024-01-30T00:23:26;11.47;;;6.90;;
12155;SDS011;6141;49.092;8.516;2024-01-30T00:25:54;9.17;;;7.03;;
12155;SDS011;6141;49.092;8.516;2024-01-30T00:28:23;10.47;;;7.57;;
12155;SDS011;6141;49.092;8.516;2024-01-30T00:30:51;7.33;;;6.50;;
12155;SDS011;6141;49.092;8.516;2024-01-30T00:33:19;10.10;;;7.53;;
12155;SDS011;6141;49.092;8.516;2024-01-30T00:35:49;8.60;;;7.47;;
12155;SDS011;6141;49.092;8.516;2024-01-30T00:38:17;10.93;;;8.30;;
12155;SDS011;6141;49.092;8.516;2024-01-30T00:40:45;10.60;;;8.23;;
12155;SDS011;6141;49.092;8.516;2024-01-30T00:43:14;11.97;;;8.37;;
12155;SDS011;6141;49.092;8.516;2024-01-30T00:45:43;10.70;;;8.33;;
12155;SDS011;6141;49.092;8.516;2024-01-30T00:48:11;9.80;;;8.23;;
12155;SDS011;6141;49.092;8.516;2024-01-30T00:50:40;10.03;;;8.33;;
12155;SDS011;6141;49.092;8.516;2024-01-30T00:53:10;10.27;;;8.43;;
12155;SDS011;6141;49.092;8.516;2024-01-30T00:55:38;9.67;;;8.30;;
12155;SDS011;6141;49.092;8.516;2024-01-30T00:58:07;10.23;;;8.23;;
12155;SDS011;6141;49.092;8.516;2024-01-30T01:00:34;10.27;;;7.87;;
12155;SDS011;6141;49.092;8.516;2024-01-30T01:03:02;9.50;;;8.47;;
12155;SDS011;6141;49.092;8.516;2024-01-30T01:05:31;11.40;;;8.70;;
12155;SDS011;6141;49.092;8.516;2024-01-30T01:08:00;10.60;;;8.47;;
12155;SDS011;6141;49.092;8.516;2024-01-30T01:10:29;12.60;;;8.93;;
12155;SDS011;6141;49.092;8.516;2024-01-30T01:12:58;13.13;;;9.27;;
12155;SDS011;6141;49.092;8.516;2024-01-30T01:15:26;10.40;;;8.60;;
12155;SDS011;6141;49.092;8.516;2024-01-30T01:17:56;10.10;;;7.87;;
12155;SDS011;6141;49.092;8.516;2024-01-30T01:20:25;10.83;;;8.93;;
12155;SDS011;6141;49.092;8.516;2024-01-30T01:22:53;13.17;;;8.73;;
12155;SDS011;6141;49.092;8.516;2024-01-30T01:25:21;14.40;;;8.93;;
12155;SDS011;6141;49.092;8.516;2024-01-30T01:27:51;10.43;;;9.03;;
12155;SDS011;6141;49.092;8.516;2024-01-30T01:30:19;10.40;;;8.40;;
12155;SDS011;6141;49.092;8.516;2024-01-30T01:32:48;10.43;;;8.30;;
12155;SDS011;6141;49.092;8.516;2024-01-30T01:35:22;11.20;;;8.57;;
12155;SDS011;6141;49.092;8.516;2024-01-30T01:37:51;9.77;;;7.97;;
12155;SDS011;6141;49.092;8.516;2024-01-30T01:40:22;10.73;;;8.07;;
12155;SDS011;6141;49.092;8.516;2024-01-30T01:42:52;9.93;;;8.33;;
12155;SDS011;6141;49.092;8.516;2024-01-30T01:45:21;11.33;;;8.73;;
12155;SDS011;6141;49.092;8.516;2024-01-30T01:47:50;10.77;;;9.53;;
12155;SDS011;6141;49.092;8.516;2024-01-30T01:50:19;10.37;;;9.37;;
12155;SDS011;6141;49.092;8.516;2024-01-30T01:52:49;10.33;;;8.73;;
12155;SDS011;6141;49.092;8.516;2024-01-30T01:55:18;10.13;;;9.13;;
12155;SDS011;6141;49.092;8.516;2024-01-30T01:57:52;11.43;;;9.47;;
12155;SDS011;6141;49.092;8.516;2024-01-30T02:00:21;9.97;;;8.30;;
12155;SDS011;6141;49.092;8.516;2024-01-30T02:02:49;10.57;;;9.20;;
12155;SDS011;6141;49.092;8.516;2024-01-30T02:05:20;12.20;;;9.87;;
12155;SDS011;6141;49.092;8.516;2024-01-30T02:07:49;10.10;;;8.47;;
12155;SDS011;6141;49.092;8.516;2024-01-30T02:10:18;9.67;;;8.00;;
12155;SDS011;6141;49.092;8.516;2024-01-30T02:12:47;8.87;;;7.83;;
12155;SDS011;6141;49.092;8.516;2024-01-30T02:15:17;10.40;;;8.83;;
12155;SDS011;6141;49.092;8.516;2024-01-30T02:17:46;9.50;;;8.30;;
12155;SDS011;6141;49.092;8.516;2024-01-30T02:20:14;9.20;;;8.20;;
12155;SDS011;6141;49.092;8.516;2024-01-30T02:22:43;11.47;;;9.07;;
12155;SDS011;6141;49.092;8.516;2024-01-30T02:25:13;12.67;;;9.57;;
12155;SDS011;6141;49.092;8.516;2024-01-30T02:27:41;11.03;;;8.70;;
12155;SDS011;6141;49.092;8.516;2024-01-30T02:30:10;9.90;;;8.03;;
12155;SDS011;6141;49.092;8.516;2024-01-30T02:32:39;9.77;;;8.77;;
12155;SDS011;6141;49.092;8.516;2024-01-30T02:35:07;11.80;;;8.63;;
12155;SDS011;6141;49.092;8.516;2024-01-30T02:37:35;9.37;;;8.40;;
12155;SDS011;6141;49.092;8.516;2024-01-30T02:40:06;10.27;;;8.67;;
12155;SDS011;6141;49.092;8.516;2024-01-30T02:42:34;9.57;;;8.43;;
12155;SDS011;6141;49.092;8.516;2024-01-30T02:45:03;9.03;;;8.03;;
12155;SDS011;6141;49.092;8.516;2024-01-30T02:47:31;9.33;;;8.23;;
12155;SDS011;6141;49.092;8.516;2024-01-30T02:50:00;9.80;;;8.70;;
12155;SDS011;6141;49.092;8.516;2024-01-30T02:52:29;9.97;;;8.87;;
12155;SDS011;6141;49.092;8.516;2024-01-30T02:54:57;10.43;;;9.27;;
12155;SDS011;6141;49.092;8.516;2024-01-30T02:57:27;9.43;;;7.87;;
12155;SDS011;6141;49.092;8.516;2024-01-30T02:59:55;10.23;;;8.40;;
12155;SDS011;6141;49.092;8.516;2024-01-30T03:02:23;11.83;;;8.97;;
12155;SDS011;6141;49.092;8.516;2024-01-30T03:04:51;9.43;;;8.50;;
12155;SDS011;6141;49.092;8.516;2024-01-30T03:07:20;12.27;;;8.67;;
12155;SDS011;6141;49.092;8.516;2024-01-30T03:09:48;9.27;;;7.97;;
12155;SDS011;6141;49.092;8.516;2024-01-30T03:12:16;9.20;;;8.17;;
12155;SDS011;6141;49.092;8.516;2024-01-30T03:14:49;9.50;;;8.40;;
12155;SDS011;6141;49.092;8.516;2024-01-30T03:17:17;9.87;;;8.13;;
12155;SDS011;6141;49.092;8.516;2024-01-30T03:19:45;10.97;;;8.47;;
12155;SDS011;6141;49.092;8.516;2024-01-30T03:22:13;9.83;;;8.23;;
12155;SDS011;6141;49.092;8.516;2024-01-30T03:24:41;8.70;;;7.80;;
12155;SDS011;6141;49.092;8.516;2024-01-30T03:27:10;9.53;;;7.67;;
12155;SDS011;6141;49.092;8.516;2024-01-30T03:29:39;10.87;;;8.57;;
12155;SDS011;6141;49.092;8.516;2024-01-30T03:32:08;9.03;;;8.13;;
12155;SDS011;6141;49.092;8.516;2024-01-30T03:34:36;9.83;;;8.00;;
12155;SDS011;6141;49.092;8.516;2024-01-30T03:37:05;8.90;;;7.93;;
12155;SDS011;6141;49.092;8.516;2024-01-30T03:39:33;10.77;;;8.47;;
12155;SDS011;6141;49.092;8.516;2024-01-30T03:42:01;9.23;;;7.53;;
12155;SDS011;6141;49.092;8.516;2024-01-30T03:44:29;10.57;;;7.50;;
12155;SDS011;6141;49.092;8.516;2024-01-30T03:46:57;12.40;;;8.80;;
12155;SDS011;6141;49.092;8.516;2024-01-30T03:49:27;9.37;;;8.33;;
12155;SDS011;6141;49.092;8.516;2024-01-30T03:51:55;9.87;;;7.77;;
12155;SDS011;6141;49.092;8.516;2024-01-30T03:54:23;11.93;;;8.73;;
12155;SDS011;6141;49.092;8.516;2024-01-30T03:56:51;10.47;;;8.40;;
12155;SDS011;6141;49.092;8.516;2024-01-30T03:59:19;9.70;;;8.70;;
12155;SDS011;6141;49.092;8.516;2024-01-30T04:01:50;9.60;;;8.60;;
12155;SDS011;6141;49.092;8.516;2024-01-30T04:04:20;10.63;;;8.23;;
12155;SDS011;6141;49.092;8.516;2024-01-30T04:06:49;6.80;;;6.10;;
12155;SDS011;6141;49.092;8.516;2024-01-30T04:09:17;9.73;;;7.40;;
12155;SDS011;6141;49.092;8.516;2024-01-30T04:11:45;9.33;;;7.23;;
12155;SDS011;6141;49.092;8.516;2024-01-30T04:14:13;9.00;;;7.23;;
12155;SDS011;6141;49.092;8.516;2024-01-30T04:16:42;8.83;;;7.40;;
12155;SDS011;6141;49.092;8.516;2024-01-30T04:19:10;8.40;;;7.57;;
12155;SDS011;6141;49.092;8.516;2024-01-30T04:21:38;9.77;;;7.83;;
12155;SDS011;6141;49.092;8.516;2024-01-30T04:24:08;6.87;;;6.20;;
12155;SDS011;6141;49.092;8.516;2024-01-30T04:26:37;8.17;;;7.10;;
12155;SDS011;6141;49.092;8.516;2024-01-30T04:29:05;11.10;;;8.00;;
12155;SDS011;6141;49.092;8.516;2024-01-30T04:31:35;9.40;;;7.60;;
12155;SDS011;6141;49.092;8.516;2024-01-30T04:34:04;9.87;;;8.10;;
12155;SDS011;6141;49.092;8.516;2024-01-30T04:36:32;11.00;;;7.40;;
12155;SDS011;6141;49.092;8.516;2024-01-30T04:39:00;8.17;;;6.67;;
12155;SDS011;6141;49.092;8.516;2024-01-30T04:41:30;8.53;;;7.63;;
12155;SDS011;6141;49.092;8.516;2024-01-30T04:43:58;8.03;;;7.03;;
12155;SDS011;6141;49.092;8.516;2024-01-30T04:46:27;9.40;;;7.43;;
12155;SDS011;6141;49.092;8.516;2024-01-30T04:48:55;9.30;;;8.40;;
12155;SDS011;6141;49.092;8.516;2024-01-30T04:51:23;8.60;;;7.60;;
12155;SDS011;6141;49.092;8.516;2024-01-30T04:53:51;8.50;;;7.33;;
12155;SDS011;6141;49.092;8.516;2024-01-30T04:56:19;8.37;;;7.40;;
12155;SDS011;6141;49.092;8.516;2024-01-30T04:58:49;9.63;;;7.30;;
12155;SDS011;6141;49.092;8.516;2024-01-30T05:01:17;8.57;;;7.13;;
12155;SDS011;6141;49.092;8.516;2024-01-30T05:03:45;7.67;;;6.67;;
12155;SDS011;6141;49.092;8.516;2024-01-30T05:06:23;9.00;;;7.17;;
12155;SDS011;6141;49.092;8.516;2024-01-30T05:08:52;8.70;;;7.10;;
12155;SDS011;6141;49.092;8.516;2024-01-30T05:11:20;8.07;;;7.20;;
12155;SDS011;6141;49.092;8.516;2024-01-30T05:13:49;7.93;;;7.13;;
12155;SDS011;6141;49.092;8.516;2024-01-30T05:16:17;9.17;;;6.63;;
12155;SDS011;6141;49.092;8.516;2024-01-30T05:18:45;9.27;;;6.90;;
12155;SDS011;6141;49.092;8.516;2024-01-30T05:21:14;8.23;;;6.93;;
12155;SDS011;6141;49.092;8.516;2024-01-30T05:23:42;9.70;;;7.97;;
12155;SDS011;6141;49.092;8.516;2024-01-30T05:26:10;9.10;;;7.53;;
12155;SDS011;6141;49.092;8.516;2024-01-30T05:28:38;11.30;;;8.13;;
12155;SDS011;6141;49.092;8.516;2024-01-30T05:31:07;14.70;;;9.67;;
12155;SDS011;6141;49.092;8.516;2024-01-30T05:33:35;11.47;;;9.37;;
12155;SDS011;6141;49.092;8.516;2024-01-30T05:36:04;11.47;;;9.70;;
12155;SDS011;6141;49.092;8.516;2024-01-30T05:38:32;12.07;;;8.33;;
12155;SDS011;6141;49.092;8.516;2024-01-30T05:41:00;10.27;;;8.37;;
12155;SDS011;6141;49.092;8.516;2024-01-30T05:43:28;9.73;;;7.37;;
12155;SDS011;6141;49.092;8.516;2024-01-30T05:45:56;12.70;;;9.27;;
12155;SDS011;6141;49.092;8.516;2024-01-30T05:48:26;10.63;;;8.70;;
12155;SDS011;6141;49.092;8.516;2024-01-30T05:50:54;11.67;;;9.40;;
12155;SDS011;6141;49.092;8.516;2024-01-30T05:53:23;13.17;;;9.17;;
12155;SDS011;6141;49.092;8.516;2024-01-30T05:55:51;8.33;;;7.30;;
12155;SDS011;6141;49.092;8.516;2024-01-30T05:58:19;12.23;;;9.57;;
12155;SDS011;6141;49.092;8.516;2024-01-30T06:00:48;11.77;;;8.93;;
12155;SDS011;6141;49.092;8.516;2024-01-30T06:03:16;11.17;;;7.77;;
12155;SDS011;6141;49.092;8.516;2024-01-30T06:05:45;10.47;;;8.30;;
12155;SDS011;6141;49.092;8.516;2024-01-30T06:08:14;11.00;;;9.23;;
12155;SDS011;6141;49.092;8.516;2024-01-30T06:10:42;12.10;;;9.17;;
12155;SDS011;6141;49.092;8.516;2024-01-30T06:13:10;12.43;;;9.53;;
12155;SDS011;6141;49.092;8.516;2024-01-30T06:15:38;12.13;;;9.60;;
12155;SDS011;6141;49.092;8.516;2024-01-30T06:18:06;11.87;;;9.60;;
12155;SDS011;6141;49.092;8.516;2024-01-30T06:20:34;13.23;;;10.33;;
12155;SDS011;6141;49.092;8.516;2024-01-30T06:23:04;14.50;;;10.63;;
12155;SDS011;6141;49.092;8.516;2024-01-30T06:25:32;12.40;;;9.53;;
12155;SDS011;6141;49.092;8.516;2024-01-30T06:28:01;10.60;;;9.20;;
12155;SDS011;6141;49.092;8.516;2024-01-30T06:30:29;13.23;;;9.60;;
12155;SDS011;6141;49.092;8.516;2024-01-30T06:32:58;10.47;;;8.57;;
12155;SDS011;6141;49.092;8.516;2024-01-30T06:35:27;10.50;;;8.77;;
12155;SDS011;6141;49.092;8.516;2024-01-30T06:37:55;12.30;;;9.53;;
12155;SDS011;6141;49.092;8.516;2024-01-30T06:40:25;15.77;;;10.80;;
12155;SDS011;6141;49.092;8.516;2024-01-30T06:42:53;12.53;;;10.07;;
12155;SDS011;6141;49.092;8.516;2024-01-30T06:45:22;13.30;;;10.33;;
12155;SDS011;6141;49.092;8.516;2024-01-30T06:47:50;13.77;;;9.87;;
12155;SDS011;6141;49.092;8.516;2024-01-30T06:50:18;13.20;;;9.80;;
12155;SDS011;6141;49.092;8.516;2024-01-30T06:52:46;12.20;;;9.67;;
12155;SDS011;6141;49.092;8.516;2024-01-30T06:55:14;10.97;;;9.50;;
12155;SDS011;6141;49.092;8.516;2024-01-30T06:57:44;12.77;;;9.30;;
12155;SDS011;6141;49.092;8.516;2024-01-30T07:00:14;12.23;;;9.10;;
12155;SDS011;6141;49.092;8.516;2024-01-30T07:02:43;11.47;;;9.27;;
12155;SDS011;6141;49.092;8.516;2024-01-30T07:05:11;15.87;;;9.97;;
12155;SDS011;6141;49.092;8.516;2024-01-30T07:07:40;12.47;;;8.70;;
12155;SDS011;6141;49.092;8.516;2024-01-30T07:10:08;13.37;;;9.67;;
12155;SDS011;6141;49.092;8.516;2024-01-30T07:12:36;12.43;;;9.23;;
12155;SDS011;6141;49.092;8.516;2024-01-30T07:15:06;11.33;;;10.00;;
12155;SDS011;6141;49.092;8.516;2024-01-30T07:17:35;14.37;;;10.17;;
12155;SDS011;6141;49.092;8.516;2024-01-30T07:20:04;10.90;;;9.60;;
12155;SDS011;6141;49.092;8.516;2024-01-30T07:22:34;11.33;;;9.13;;
12155;SDS011;6141;49.092;8.516;2024-01-30T07:25:02;14.63;;;10.00;;
12155;SDS011;6141;49.092;8.516;2024-01-30T07:27:31;11.93;;;9.73;;
12155;SDS011;6141;49.092;8.516;2024-01-30T07:29:59;11.50;;;9.43;;
12155;SDS011;6141;49.092;8.516;2024-01-30T07:32:29;12.00;;;9.30;;
12155;SDS011;6141;49.092;8.516;2024-01-30T07:34:58;14.23;;;9.53;;
12155;SDS011;6141;49.092;8.516;2024-01-30T07:37:34;12.37;;;9.20;;
12155;SDS011;6141;49.092;8.516;2024-01-30T07:40:03;9.50;;;8.47;;
12155;SDS011;6141;49.092;8.516;2024-01-30T07:42:32;9.97;;;8.00;;
12155;SDS011;6141;49.092;8.516;2024-01-30T07:45:00;10.10;;;7.97;;
12155;SDS011;6141;49.092;8.516;2024-01-30T07:47:30;10.50;;;7.77;;
12155;SDS011;6141;49.092;8.516;2024-01-30T07:49:58;7.87;;;6.77;;
12155;SDS011;6141;49.092;8.516;2024-01-30T07:52:26;8.67;;;6.70;;
12155;SDS011;6141;49.092;8.516;2024-01-30T07:54:54;8.13;;;6.70;;
12155;SDS011;6141;49.092;8.516;2024-01-30T07:57:23;9.17;;;6.70;;
12155;SDS011;6141;49.092;8.516;2024-01-30T07:59:51;8.43;;;6.60;;
12155;SDS011;6141;49.092;8.516;2024-01-30T08:02:19;8.00;;;6.30;;
12155;SDS011;6141;49.092;8.516;2024-01-30T08:04:48;10.13;;;7.13;;
12155;SDS011;6141;49.092;8.516;2024-01-30T08:07:17;7.00;;;6.30;;
12155;SDS011;6141;49.092;8.516;2024-01-30T08:09:46;6.20;;;5.60;;
12155;SDS011;6141;49.092;8.516;2024-01-30T08:12:14;8.70;;;6.27;;
12155;SDS011;6141;49.092;8.516;2024-01-30T08:14:42;7.90;;;6.83;;
12155;SDS011;6141;49.092;8.516;2024-01-30T08:17:10;8.17;;;6.47;;
12155;SDS011;6141;49.092;8.516;2024-01-30T08:19:38;7.67;;;6.47;;
12155;SDS011;6141;49.092;8.516;2024-01-30T08:22:08;7.60;;;6.80;;
12155;SDS011;6141;49.092;8.516;2024-01-30T08:24:36;8.37;;;6.77;;
12155;SDS011;6141;49.092;8.516;2024-01-30T08:27:06;7.40;;;6.63;;
12155;SDS011;6141;49.092;8.516;2024-01-30T08:29:36;8.60;;;7.00;;
12155;SDS011;6141;49.092;8.516;2024-01-30T08:32:05;7.87;;;6.40;;
12155;SDS011;6141;49.092;8.516;2024-01-30T08:34:34;8.40;;;6.67;;
12155;SDS011;6141;49.092;8.516;2024-01-30T08:37:02;8.97;;;6.50;;
12155;SDS011;6141;49.092;8.516;2024-01-30T08:39:32;9.17;;;6.77;;
12155;SDS011;6141;49.092;8.516;2024-01-30T08:42:00;7.83;;;6.57;;
12155;SDS011;6141;49.092;8.516;2024-01-30T08:44:28;7.67;;;6.40;;
12155;SDS011;6141;49.092;8.516;2024-01-30T08:46:56;10.67;;;7.10;;
12155;SDS011;6141;49.092;8.516;2024-01-30T08:49:26;7.27;;;6.57;;
12155;SDS011;6141;49.092;8.516;2024-01-30T08:51:54;7.67;;;6.47;;
12155;SDS011;6141;49.092;8.516;2024-01-30T08:54:24;8.20;;;7.40;;
12155;SDS011;6141;49.092;8.516;2024-01-30T08:56:53;8.13;;;7.30;;
12155;SDS011;6141;49.092;8.516;2024-01-30T08:59:23;7.83;;;6.87;;
12155;SDS011;6141;49.092;8.516;2024-01-30T09:01:51;8.07;;;7.37;;
12155;SDS011;6141;49.092;8.516;2024-01-30T09:04:36;10.53;;;8.57;;
12155;SDS011;6141;49.092;8.516;2024-01-30T09:07:05;10.53;;;8.53;;
12155;SDS011;6141;49.092;8.516;2024-01-30T09:09:37;9.93;;;8.43;;
12155;SDS011;6141;49.092;8.516;2024-01-30T09:12:08;10.13;;;8.30;;
12155;SDS011;6141;49.092;8.516;2024-01-30T09:14:38;10.00;;;8.30;;
12155;SDS011;6141;49.092;8.516;2024-01-30T09:17:07;9.43;;;8.47;;
12155;SDS011;6141;49.092;8.516;2024-01-30T09:19:36;9.23;;;8.23;;
12155;SDS011;6141;49.092;8.516;2024-01-30T09:22:05;9.37;;;8.40;;
12155;SDS011;6141;49.092;8.516;2024-01-30T09:24:33;9.20;;;8.17;;
12155;SDS011;6141;49.092;8.516;2024-01-30T09:27:01;10.20;;;8.37;;
12155;SDS011;6141;49.092;8.516;2024-01-30T09:29:31;8.87;;;7.97;;
12155;SDS011;6141;49.092;8.516;2024-01-30T09:32:00;10.87;;;8.90;;
12155;SDS011;6141;49.092;8.516;2024-01-30T09:34:28;10.10;;;8.43;;
12155;SDS011;6141;49.092;8.516;2024-01-30T09:36:57;9.90;;;8.30;;
12155;SDS011;6141;49.092;8.516;2024-01-30T09:39:26;10.90;;;9.20;;
12155;SDS011;6141;49.092;8.516;2024-01-30T09:41:56;14.63;;;10.53;;
12155;SDS011;6141;49.092;8.516;2024-01-30T09:44:31;12.60;;;10.53;;
12155;SDS011;6141;49.092;8.516;2024-01-30T09:47:01;12.17;;;10.90;;
12155;SDS011;6141;49.092;8.516;2024-01-30T09:49:32;12.63;;;11.33;;
12155;SDS011;6141;49.092;8.516;2024-01-30T09:52:00;11.73;;;10.50;;
12155;SDS011;6141;49.092;8.516;2024-01-30T09:54:29;11.90;;;10.17;;
12155;SDS011;6141;49.092;8.516;2024-01-30T09:57:02;11.13;;;9.93;;
12155;SDS011;6141;49.092;8.516;2024-01-30T09:59:31;13.60;;;10.90;;
12155;SDS011;6141;49.092;8.516;2024-01-30T10:02:00;11.33;;;10.17;;
12155;SDS011;6141;49.092;8.516;2024-01-30T10:04:30;12.20;;;10.53;;
12155;SDS011;6141;49.092;8.516;2024-01-30T10:06:59;12.43;;;10.60;;
12155;SDS011;6141;49.092;8.516;2024-01-30T10:09:31;12.40;;;10.20;;
12155;SDS011;6141;49.092;8.516;2024-01-30T10:12:01;13.30;;;11.83;;
12155;SDS011;6141;49.092;8.516;2024-01-30T10:14:32;11.57;;;10.37;;
12155;SDS011;6141;49.092;8.516;2024-01-30T10:17:00;11.53;;;10.33;;
12155;SDS011;6141;49.092;8.516;2024-01-30T10:19:37;12.63;;;11.33;;
12155;SDS011;6141;49.092;8.516;2024-01-30T10:22:06;13.20;;;11.47;;
12155;SDS011;6141;49.092;8.516;2024-01-30T10:24:34;12.40;;;11.10;;
12155;SDS011;6141;49.092;8.516;2024-01-30T10:27:03;12.67;;;11.23;;
12155;SDS011;6141;49.092;8.516;2024-01-30T10:29:34;13.07;;;11.43;;
12155;SDS011;6141;49.092;8.516;2024-01-30T10:32:06;12.53;;;11.20;;
12155;SDS011;6141;49.092;8.516;2024-01-30T10:34:34;12.53;;;11.23;;
12155;SDS011;6141;49.092;8.516;2024-01-30T10:37:06;12.63;;;11.43;;
12155;SDS011;6141;49.092;8.516;2024-01-30T10:39:39;13.70;;;12.30;;
12155;SDS011;6141;49.092;8.516;2024-01-30T10:42:11;13.73;;;12.03;;
12155;SDS011;6141;49.092;8.516;2024-01-30T10:44:46;13.67;;;12.17;;
12155;SDS011;6141;49.092;8.516;2024-01-30T10:47:25;13.13;;;11.70;;
12155;SDS011;6141;49.092;8.516;2024-01-30T10:49:55;14.73;;;11.60;;
12155;SDS011;6141;49.092;8.516;2024-01-30T10:52:24;14.90;;;12.40;;
12155;SDS011;6141;49.092;8.516;2024-01-30T10:54:54;13.07;;;11.80;;
12155;SDS011;6141;49.092;8.516;2024-01-30T10:57:23;13.53;;;12.13;;
12155;SDS011;6141;49.092;8.516;2024-01-30T10:59:55;11.67;;;10.53;;
12155;SDS011;6141;49.092;8.516;2024-01-30T11:02:24;13.60;;;11.33;;
12155;SDS011;6141;49.092;8.516;2024-01-30T11:04:55;13.80;;;11.27;;
12155;SDS011;6141;49.092;8.516;2024-01-30T11:07:25;12.17;;;10.97;;
12155;SDS011;6141;49.092;8.516;2024-01-30T11:09:59;11.37;;;10.27;;
12155;SDS011;6141;49.092;8.516;2024-01-30T11:12:29;12.23;;;10.53;;
12155;SDS011;6141;49.092;8.516;2024-01-30T11:15:04;11.07;;;9.90;;
12155;SDS011;6141;49.092;8.516;2024-01-30T11:17:44;11.87;;;9.80;;
12155;SDS011;6141;49.092;8.516;2024-01-30T11:20:18;10.90;;;9.33;;
12155;SDS011;6141;49.092;8.516;2024-01-30T11:22:48;10.33;;;9.33;;
12155;SDS011;6141;49.092;8.516;2024-01-30T11:25:19;10.30;;;9.20;;
12155;SDS011;6141;49.092;8.516;2024-01-30T11:27:49;11.53;;;9.50;;
12155;SDS011;6141;49.092;8.516;2024-01-30T11:30:23;10.53;;;9.43;;
12155;SDS011;6141;49.092;8.516;2024-01-30T11:32:59;10.80;;;9.03;;
12155;SDS011;6141;49.092;8.516;2024-01-30T11:35:30;10.77;;;9.67;;
12155;SDS011;6141;49.092;8.516;2024-01-30T11:38:01;10.30;;;9.00;;
12155;SDS011;6141;49.092;8.516;2024-01-30T11:40:31;9.53;;;8.27;;
12155;SDS011;6141;49.092;8.516;2024-01-30T11:43:01;11.67;;;9.43;;
12155;SDS011;6141;49.092;8.516;2024-01-30T11:45:32;9.87;;;8.53;;
12155;SDS011;6141;49.092;8.516;2024-01-30T11:48:01;11.00;;;8.83;;
12155;SDS011;6141;49.092;8.516;2024-01-30T11:50:31;13.90;;;9.53;;
12155;SDS011;6141;49.092;8.516;2024-01-30T11:53:01;11.83;;;9.47;;
12155;SDS011;6141;49.092;8.516;2024-01-30T11:55:30;11.97;;;10.00;;
12155;SDS011;6141;49.092;8.516;2024-01-30T11:58:01;10.40;;;9.27;;
12155;SDS011;6141;49.092;8.516;2024-01-30T12:00:32;10.87;;;8.83;;
12155;SDS011;6141;49.092;8.516;2024-01-30T12:03:02;12.87;;;8.90;;
12155;SDS011;6141;49.092;8.516;2024-01-30T12:05:32;12.17;;;8.83;;
12155;SDS011;6141;49.092;8.516;2024-01-30T12:08:02;10.43;;;9.33;;
12155;SDS011;6141;49.092;8.516;2024-01-30T12:10:31;10.20;;;8.93;;
12155;SDS011;6141;49.092;8.516;2024-01-30T12:12:59;10.60;;;8.90;;
12155;SDS011;6141;49.092;8.516;2024-01-30T12:15:28;10.97;;;8.73;;
12155;SDS011;6141;49.092;8.516;2024-01-30T12:18:04;9.57;;;8.17;;
12155;SDS011;6141;49.092;8.516;2024-01-30T12:20:34;9.43;;;8.47;;
12155;SDS011;6141;49.092;8.516;2024-01-30T12:23:03;8.63;;;7.67;;
12155;SDS011;6141;49.092;8.516;2024-01-30T12:25:31;11.47;;;8.70;;
12155;SDS011;6141;49.092;8.516;2024-01-30T12:27:59;10.50;;;7.77;;
12155;SDS011;6141;49.092;8.516;2024-01-30T12:30:28;10.63;;;8.43;;
12155;SDS011;6141;49.092;8.516;2024-01-30T12:32:57;11.20;;;8.83;;
12155;SDS011;6141;49.092;8.516;2024-01-30T12:35:26;8.50;;;7.70;;
12155;SDS011;6141;49.092;8.516;2024-01-30T12:37:59;9.50;;;8.50;;
12155;SDS011;6141;49.092;8.516;2024-01-30T12:40:27;9.53;;;8.23;;
12155;SDS011;6141;49.092;8.516;2024-01-30T12:42:56;9.73;;;8.47;;
12155;SDS011;6141;49.092;8.516;2024-01-30T12:45:24;9.27;;;7.93;;
12155;SDS011;6141;49.092;8.516;2024-01-30T12:47:53;11.80;;;8.30;;
12155;SDS011;6141;49.092;8.516;2024-01-30T12:50:21;8.83;;;7.87;;
12155;SDS011;6141;49.092;8.516;2024-01-30T12:52:51;10.57;;;8.53;;
12155;SDS011;6141;49.092;8.516;2024-01-30T12:55:19;9.53;;;7.90;;
12155;SDS011;6141;49.092;8.516;2024-01-30T12:57:47;11.43;;;8.50;;
12155;SDS011;6141;49.092;8.516;2024-01-30T13:00:15;8.67;;;7.77;;
12155;SDS011;6141;49.092;8.516;2024-01-30T13:02:44;11.27;;;8.47;;
12155;SDS011;6141;49.092;8.516;2024-01-30T13:05:13;11.87;;;8.87;;
12155;SDS011;6141;49.092;8.516;2024-01-30T13:07:41;11.20;;;9.37;;
12155;SDS011;6141;49.092;8.516;2024-01-30T13:10:11;10.00;;;8.53;;
12155;SDS011;6141;49.092;8.516;2024-01-30T13:12:39;10.73;;;8.77;;
12155;SDS011;6141;49.092;8.516;2024-01-30T13:15:07;11.77;;;8.80;;
12155;SDS011;6141;49.092;8.516;2024-01-30T13:17:37;9.27;;;8.30;;
12155;SDS011;6141;49.092;8.516;2024-01-30T13:20:06;9.33;;;8.33;;
12155;SDS011;6141;49.092;8.516;2024-01-30T13:22:38;10.03;;;8.60;;
12155;SDS011;6141;49.092;8.516;2024-01-30T13:25:06;10.60;;;8.93;;
12155;SDS011;6141;49.092;8.516;2024-01-30T13:27:36;9.80;;;8.40;;
12155;SDS011;6141;49.092;8.516;2024-01-30T13:30:06;11.23;;;8.53;;
12155;SDS011;6141;49.092;8.516;2024-01-30T13:32:36;10.23;;;7.87;;
12155;SDS011;6141;49.092;8.516;2024-01-30T13:35:05;9.80;;;8.20;;
12155;SDS011;6141;49.092;8.516;2024-01-30T13:37:36;9.47;;;8.47;;
12155;SDS011;6141;49.092;8.516;2024-01-30T13:40:05;9.77;;;8.70;;
12155;SDS011;6141;49.092;8.516;2024-01-30T13:42:41;10.00;;;8.70;;
12155;SDS011;6141;49.092;8.516;2024-01-30T13:45:09;8.97;;;8.07;;
12155;SDS011;6141;49.092;8.516;2024-01-30T13:47:38;10.43;;;8.77;;
12155;SDS011;6141;49.092;8.516;2024-01-30T13:50:08;10.30;;;8.23;;
12155;SDS011;6141;49.092;8.516;2024-01-30T13:52:41;10.20;;;8.20;;
12155;SDS011;6141;49.092;8.516;2024-01-30T13:55:11;11.37;;;9.23;;
12155;SDS011;6141;49.092;8.516;2024-01-30T13:57:44;11.37;;;9.37;;
12155;SDS011;6141;49.092;8.516;2024-01-30T14:00:15;11.27;;;8.97;;
12155;SDS011;6141;49.092;8.516;2024-01-30T14:02:43;10.07;;;8.67;;
12155;SDS011;6141;49.092;8.516;2024-01-30T14:05:12;12.77;;;8.40;;
12155;SDS011;6141;49.092;8.516;2024-01-30T14:07:42;11.60;;;7.97;;
12155;SDS011;6141;49.092;8.516;2024-01-30T14:10:11;9.63;;;8.43;;
12155;SDS011;6141;49.092;8.516;2024-01-30T14:12:41;11.97;;;8.83;;
12155;SDS011;6141;49.092;8.516;2024-01-30T14:15:11;9.77;;;8.23;;
12155;SDS011;6141;49.092;8.516;2024-01-30T14:17:53;10.67;;;8.37;;
12155;SDS011;6141;49.092;8.516;2024-01-30T14:20:22;11.27;;;8.67;;
12155;SDS011;6141;49.092;8.516;2024-01-30T14:22:51;11.83;;;9.03;;
12155;SDS011;6141;49.092;8.516;2024-01-30T14:25:19;11.07;;;7.87;;
12155;SDS011;6141;49.092;8.516;2024-01-30T14:27:48;8.67;;;7.70;;
12155;SDS011;6141;49.092;8.516;2024-01-30T14:30:17;9.97;;;7.67;;
12155;SDS011;6141;49.092;8.516;2024-01-30T14:32:45;10.07;;;7.20;;
12155;SDS011;6141;49.092;8.516;2024-01-30T14:35:15;9.07;;;7.33;;
12155;SDS011;6141;49.092;8.516;2024-01-30T14:37:43;9.30;;;7.67;;
12155;SDS011;6141;49.092;8.516;2024-01-30T14:40:11;10.10;;;6.60;;
12155;SDS011;6141;49.092;8.516;2024-01-30T14:42:40;9.70;;;7.00;;
12155;SDS011;6141;49.092;8.516;2024-01-30T14:45:08;10.20;;;7.70;;
12155;SDS011;6141;49.092;8.516;2024-01-30T14:47:38;8.57;;;7.27;;
12155;SDS011;6141;49.092;8.516;2024-01-30T14:50:07;8.10;;;7.30;;
12155;SDS011;6141;49.092;8.516;2024-01-30T14:52:36;8.37;;;7.53;;
12155;SDS011;6141;49.092;8.516;2024-01-30T14:55:06;8.57;;;7.20;;
12155;SDS011;6141;49.092;8.516;2024-01-30T14:57:35;10.43;;;7.30;;
12155;SDS011;6141;49.092;8.516;2024-01-30T15:00:05;9.93;;;7.47;;
12155;SDS011;6141;49.092;8.516;2024-01-30T15:02:35;10.83;;;7.53;;